sensor_id;sensor_type;location;lat;lon;timestamp;pressure;altitude;pressure_sealevel;temperature
71960;BMP280;59832;51.146;14.024;2023-05-19T00:00:14;99181.75;;;9.81
71960;BMP280;59832;51.146;14.024;2023-05-19T00:02:41;99181.06;;;9.72
71960;BMP280;59832;51.146;14.024;2023-05-19T00:05:09;99181.53;;;9.66
71960;BMP280;59832;51.146;14.024;2023-05-19T00:07:37;99179.84;;;9.70
71960;BMP280;59832;51.146;14.024;2023-05-19T00:10:04;99173.97;;;9.78
71960;BMP280;59832;51.146;14.024;2023-05-19T00:12:30;99179.34;;;9.76
71960;BMP280;59832;51.146;14.024;2023-05-19T00:14:57;99169.69;;;9.70
71960;BMP280;59832;51.146;14.024;2023-05-19T00:17:23;99172.81;;;9.75
71960;BMP280;59832;51.146;14.024;2023-05-19T00:19:50;99172.47;;;9.77
71960;BMP280;59832;51.146;14.024;2023-05-19T00:22:17;99166.53;;;9.73
71960;BMP280;59832;51.146;14.024;2023-05-19T00:24:43;99169.63;;;9.58
71960;BMP280;59832;51.146;14.024;2023-05-19T00:27:10;99170.59;;;9.65
71960;BMP280;59832;51.146;14.024;2023-05-19T00:29:36;99163.97;;;9.52
71960;BMP280;59832;51.146;14.024;2023-05-19T00:32:02;99164.09;;;9.56
71960;BMP280;59832;51.146;14.024;2023-05-19T00:34:29;99165.69;;;9.60
71960;BMP280;59832;51.146;14.024;2023-05-19T00:36:55;99169.72;;;9.40
71960;BMP280;59832;51.146;14.024;2023-05-19T00:39:22;99161.16;;;9.45
71960;BMP280;59832;51.146;14.024;2023-05-19T00:41:48;99167.00;;;9.45
71960;BMP280;59832;51.146;14.024;2023-05-19T00:44:14;99160.94;;;9.29
71960;BMP280;59832;51.146;14.024;2023-05-19T00:46:41;99160.47;;;9.36
71960;BMP280;59832;51.146;14.024;2023-05-19T00:49:07;99167.72;;;9.46
71960;BMP280;59832;51.146;14.024;2023-05-19T00:51:33;99163.44;;;9.38
71960;BMP280;59832;51.146;14.024;2023-05-19T00:54:00;99157.13;;;9.44
71960;BMP280;59832;51.146;14.024;2023-05-19T00:56:27;99167.91;;;9.41
71960;BMP280;59832;51.146;14.024;2023-05-19T00:58:53;99160.41;;;9.44
71960;BMP280;59832;51.146;14.024;2023-05-19T01:01:20;99161.25;;;9.57
71960;BMP280;59832;51.146;14.024;2023-05-19T01:03:47;99160.59;;;9.39
71960;BMP280;59832;51.146;14.024;2023-05-19T01:06:14;99155.69;;;9.34
71960;BMP280;59832;51.146;14.024;2023-05-19T01:08:40;99156.63;;;9.50
71960;BMP280;59832;51.146;14.024;2023-05-19T01:11:07;99157.34;;;9.30
71960;BMP280;59832;51.146;14.024;2023-05-19T01:13:33;99151.06;;;9.36
71960;BMP280;59832;51.146;14.024;2023-05-19T01:16:35;99158.09;;;9.31
71960;BMP280;59832;51.146;14.024;2023-05-19T01:21:28;99147.63;;;9.32
71960;BMP280;59832;51.146;14.024;2023-05-19T01:26:56;99150.59;;;9.34
71960;BMP280;59832;51.146;14.024;2023-05-19T01:29:27;99152.47;;;9.17
71960;BMP280;59832;51.146;14.024;2023-05-19T01:31:54;99152.03;;;9.23
71960;BMP280;59832;51.146;14.024;2023-05-19T01:34:24;99153.28;;;9.09
71960;BMP280;59832;51.146;14.024;2023-05-19T01:36:52;99154.34;;;8.99
71960;BMP280;59832;51.146;14.024;2023-05-19T01:39:19;99163.75;;;8.98
71960;BMP280;59832;51.146;14.024;2023-05-19T01:41:45;99156.88;;;8.99
71960;BMP280;59832;51.146;14.024;2023-05-19T01:44:12;99159.09;;;9.00
71960;BMP280;59832;51.146;14.024;2023-05-19T01:46:39;99155.00;;;8.87
71960;BMP280;59832;51.146;14.024;2023-05-19T01:49:06;99165.13;;;8.96
71960;BMP280;59832;51.146;14.024;2023-05-19T01:51:32;99159.44;;;8.90
71960;BMP280;59832;51.146;14.024;2023-05-19T01:53:59;99169.00;;;8.93
71960;BMP280;59832;51.146;14.024;2023-05-19T01:56:30;99165.38;;;9.03
71960;BMP280;59832;51.146;14.024;2023-05-19T01:59:01;99165.38;;;9.03
71960;BMP280;59832;51.146;14.024;2023-05-19T02:01:29;99164.38;;;8.95
71960;BMP280;59832;51.146;14.024;2023-05-19T02:04:21;99162.00;;;8.73
71960;BMP280;59832;51.146;14.024;2023-05-19T02:06:57;99161.88;;;8.78
71960;BMP280;59832;51.146;14.024;2023-05-19T02:09:37;99166.97;;;8.61
71960;BMP280;59832;51.146;14.024;2023-05-19T02:12:10;99172.38;;;8.42
71960;BMP280;59832;51.146;14.024;2023-05-19T02:14:39;99166.56;;;8.33
71960;BMP280;59832;51.146;14.024;2023-05-19T02:17:06;99163.75;;;8.18
71960;BMP280;59832;51.146;14.024;2023-05-19T02:19:35;99158.34;;;8.10
71960;BMP280;59832;51.146;14.024;2023-05-19T02:22:02;99153.91;;;8.07
71960;BMP280;59832;51.146;14.024;2023-05-19T02:24:28;99155.53;;;8.12
71960;BMP280;59832;51.146;14.024;2023-05-19T02:26:54;99150.47;;;7.95
71960;BMP280;59832;51.146;14.024;2023-05-19T02:29:21;99150.13;;;7.88
71960;BMP280;59832;51.146;14.024;2023-05-19T02:31:47;99151.78;;;8.01
71960;BMP280;59832;51.146;14.024;2023-05-19T02:34:14;99143.88;;;7.85
71960;BMP280;59832;51.146;14.024;2023-05-19T02:36:41;99150.91;;;7.97
71960;BMP280;59832;51.146;14.024;2023-05-19T02:39:08;99149.25;;;7.84
71960;BMP280;59832;51.146;14.024;2023-05-19T02:41:36;99151.59;;;7.89
71960;BMP280;59832;51.146;14.024;2023-05-19T02:44:02;99157.44;;;7.89
71960;BMP280;59832;51.146;14.024;2023-05-19T02:46:29;99151.78;;;7.92
71960;BMP280;59832;51.146;14.024;2023-05-19T02:48:56;99153.28;;;7.93
71960;BMP280;59832;51.146;14.024;2023-05-19T02:51:22;99150.28;;;7.91
71960;BMP280;59832;51.146;14.024;2023-05-19T02:53:49;99149.13;;;7.97
71960;BMP280;59832;51.146;14.024;2023-05-19T02:56:15;99151.31;;;7.82
71960;BMP280;59832;51.146;14.024;2023-05-19T02:58:41;99151.31;;;7.90
71960;BMP280;59832;51.146;14.024;2023-05-19T03:01:08;99148.97;;;7.94
71960;BMP280;59832;51.146;14.024;2023-05-19T03:03:34;99149.53;;;7.99
71960;BMP280;59832;51.146;14.024;2023-05-19T03:06:01;99152.53;;;7.93
71960;BMP280;59832;51.146;14.024;2023-05-19T03:08:27;99151.91;;;7.87
71960;BMP280;59832;51.146;14.024;2023-05-19T03:10:54;99143.25;;;7.88
71960;BMP280;59832;51.146;14.024;2023-05-19T03:13:20;99145.97;;;7.92
71960;BMP280;59832;51.146;14.024;2023-05-19T03:15:46;99148.03;;;7.98
71960;BMP280;59832;51.146;14.024;2023-05-19T03:18:14;99147.75;;;8.00
71960;BMP280;59832;51.146;14.024;2023-05-19T03:20:41;99150.47;;;8.03
71960;BMP280;59832;51.146;14.024;2023-05-19T03:23:09;99147.47;;;8.01
71960;BMP280;59832;51.146;14.024;2023-05-19T03:25:36;99145.22;;;7.83
71960;BMP280;59832;51.146;14.024;2023-05-19T03:28:02;99158.06;;;7.86
71960;BMP280;59832;51.146;14.024;2023-05-19T03:30:29;99154.47;;;7.96
71960;BMP280;59832;51.146;14.024;2023-05-19T03:32:55;99151.03;;;8.00
71960;BMP280;59832;51.146;14.024;2023-05-19T03:35:22;99148.97;;;7.94
71960;BMP280;59832;51.146;14.024;2023-05-19T03:37:48;99146.56;;;8.06
71960;BMP280;59832;51.146;14.024;2023-05-19T03:40:15;99146.72;;;8.09
71960;BMP280;59832;51.146;14.024;2023-05-19T03:42:43;99144.97;;;8.19
71960;BMP280;59832;51.146;14.024;2023-05-19T03:45:10;99143.47;;;8.18
71960;BMP280;59832;51.146;14.024;2023-05-19T03:47:36;99143.44;;;8.26
71960;BMP280;59832;51.146;14.024;2023-05-19T03:50:03;99147.59;;;8.48
71960;BMP280;59832;51.146;14.024;2023-05-19T03:52:30;99145.97;;;8.35
71960;BMP280;59832;51.146;14.024;2023-05-19T03:54:56;99150.31;;;8.34
71960;BMP280;59832;51.146;14.024;2023-05-19T03:57:22;99155.56;;;8.29
71960;BMP280;59832;51.146;14.024;2023-05-19T03:59:49;99161.63;;;8.20
71960;BMP280;59832;51.146;14.024;2023-05-19T04:02:15;99165.34;;;8.22
71960;BMP280;59832;51.146;14.024;2023-05-19T04:04:42;99160.44;;;8.34
71960;BMP280;59832;51.146;14.024;2023-05-19T04:07:08;99159.72;;;8.25
71960;BMP280;59832;51.146;14.024;2023-05-19T04:09:34;99165.66;;;8.21
71960;BMP280;59832;51.146;14.024;2023-05-19T04:12:02;99167.91;;;8.13
71960;BMP280;59832;51.146;14.024;2023-05-19T04:14:29;99162.06;;;8.13
71960;BMP280;59832;51.146;14.024;2023-05-19T04:16:55;99167.16;;;8.13
71960;BMP280;59832;51.146;14.024;2023-05-19T04:19:22;99171.03;;;8.02
71960;BMP280;59832;51.146;14.024;2023-05-19T04:21:48;99169.84;;;8.08
71960;BMP280;59832;51.146;14.024;2023-05-19T04:24:15;99163.56;;;8.05
71960;BMP280;59832;51.146;14.024;2023-05-19T04:26:41;99160.59;;;8.12
71960;BMP280;59832;51.146;14.024;2023-05-19T04:29:11;99163.56;;;8.23
71960;BMP280;59832;51.146;14.024;2023-05-19T04:31:39;99153.28;;;8.02
71960;BMP280;59832;51.146;14.024;2023-05-19T04:34:06;99149.28;;;8.18
71960;BMP280;59832;51.146;14.024;2023-05-19T04:36:33;99154.78;;;8.20
71960;BMP280;59832;51.146;14.024;2023-05-19T04:38:59;99162.41;;;8.29
71960;BMP280;59832;51.146;14.024;2023-05-19T04:41:28;99157.63;;;8.36
71960;BMP280;59832;51.146;14.024;2023-05-19T04:43:55;99150.13;;;8.22
71960;BMP280;59832;51.146;14.024;2023-05-19T04:46:22;99156.13;;;8.26
71960;BMP280;59832;51.146;14.024;2023-05-19T04:48:49;99162.69;;;8.36
71960;BMP280;59832;51.146;14.024;2023-05-19T04:51:16;99164.19;;;8.37
71960;BMP280;59832;51.146;14.024;2023-05-19T04:53:42;99159.09;;;8.45
71960;BMP280;59832;51.146;14.024;2023-05-19T04:56:09;99155.97;;;8.40
71960;BMP280;59832;51.146;14.024;2023-05-19T04:58:38;99159.25;;;8.49
71960;BMP280;59832;51.146;14.024;2023-05-19T05:01:07;99152.38;;;8.49
71960;BMP280;59832;51.146;14.024;2023-05-19T05:03:34;99151.94;;;8.39
71960;BMP280;59832;51.146;14.024;2023-05-19T05:06:01;99152.06;;;8.42
71960;BMP280;59832;51.146;14.024;2023-05-19T05:08:27;99147.47;;;8.27
71960;BMP280;59832;51.146;14.024;2023-05-19T05:10:55;99149.81;;;8.41
71960;BMP280;59832;51.146;14.024;2023-05-19T05:13:22;99151.06;;;8.26
71960;BMP280;59832;51.146;14.024;2023-05-19T05:15:49;99144.59;;;8.63
71960;BMP280;59832;51.146;14.024;2023-05-19T05:18:17;99148.47;;;8.52
71960;BMP280;59832;51.146;14.024;2023-05-19T05:20:44;99150.13;;;8.56
71960;BMP280;59832;51.146;14.024;2023-05-19T05:23:11;99137.88;;;8.67
71960;BMP280;59832;51.146;14.024;2023-05-19T05:25:41;99142.13;;;8.84
71960;BMP280;59832;51.146;14.024;2023-05-19T05:28:08;99141.88;;;8.77
71960;BMP280;59832;51.146;14.024;2023-05-19T05:30:35;99142.75;;;8.89
71960;BMP280;59832;51.146;14.024;2023-05-19T05:33:01;99150.38;;;8.89
71960;BMP280;59832;51.146;14.024;2023-05-19T05:35:28;99147.50;;;9.29
71960;BMP280;59832;51.146;14.024;2023-05-19T05:37:54;99149.47;;;9.23
71960;BMP280;59832;51.146;14.024;2023-05-19T05:40:21;99142.84;;;9.31
71960;BMP280;59832;51.146;14.024;2023-05-19T05:42:47;99141.59;;;9.45
71960;BMP280;59832;51.146;14.024;2023-05-19T05:45:14;99148.97;;;9.59
71960;BMP280;59832;51.146;14.024;2023-05-19T05:47:40;99146.56;;;9.63
71960;BMP280;59832;51.146;14.024;2023-05-19T05:50:07;99148.97;;;9.59
71960;BMP280;59832;51.146;14.024;2023-05-19T05:52:35;99151.16;;;9.90
71960;BMP280;59832;51.146;14.024;2023-05-19T05:55:02;99159.53;;;10.44
71960;BMP280;59832;51.146;14.024;2023-05-19T05:57:28;99161.28;;;11.13
71960;BMP280;59832;51.146;14.024;2023-05-19T05:59:56;99164.03;;;11.32
71960;BMP280;59832;51.146;14.024;2023-05-19T06:02:22;99157.50;;;11.71
71960;BMP280;59832;51.146;14.024;2023-05-19T06:04:49;99164.53;;;11.62
71960;BMP280;59832;51.146;14.024;2023-05-19T06:07:15;99175.53;;;12.06
71960;BMP280;59832;51.146;14.024;2023-05-19T06:09:42;99167.44;;;11.76
71960;BMP280;59832;51.146;14.024;2023-05-19T06:12:08;99163.34;;;11.71
71960;BMP280;59832;51.146;14.024;2023-05-19T06:14:35;99179.97;;;11.29
71960;BMP280;59832;51.146;14.024;2023-05-19T06:17:01;99170.75;;;10.88
71960;BMP280;59832;51.146;14.024;2023-05-19T06:19:27;99181.53;;;10.73
71960;BMP280;59832;51.146;14.024;2023-05-19T06:21:54;99182.81;;;10.91
71960;BMP280;59832;51.146;14.024;2023-05-19T06:24:20;99166.94;;;11.58
71960;BMP280;59832;51.146;14.024;2023-05-19T06:26:47;99186.47;;;11.66
71960;BMP280;59832;51.146;14.024;2023-05-19T06:29:13;99176.84;;;11.60
71960;BMP280;59832;51.146;14.024;2023-05-19T06:31:40;99179.38;;;11.60
71960;BMP280;59832;51.146;14.024;2023-05-19T06:34:06;99188.59;;;12.04
71960;BMP280;59832;51.146;14.024;2023-05-19T06:36:32;99182.19;;;13.01
71960;BMP280;59832;51.146;14.024;2023-05-19T06:39:00;99176.00;;;12.55
71960;BMP280;59832;51.146;14.024;2023-05-19T06:41:28;99185.56;;;12.89
71960;BMP280;59832;51.146;14.024;2023-05-19T06:43:54;99191.47;;;12.15
71960;BMP280;59832;51.146;14.024;2023-05-19T06:46:21;99187.97;;;12.07
71960;BMP280;59832;51.146;14.024;2023-05-19T06:48:48;99178.56;;;11.44
71960;BMP280;59832;51.146;14.024;2023-05-19T06:51:14;99184.00;;;11.06
71960;BMP280;59832;51.146;14.024;2023-05-19T06:53:47;99177.53;;;11.08
71960;BMP280;59832;51.146;14.024;2023-05-19T06:56:14;99185.06;;;10.93
71960;BMP280;59832;51.146;14.024;2023-05-19T06:58:41;99175.06;;;11.36
71960;BMP280;59832;51.146;14.024;2023-05-19T07:01:07;99173.84;;;11.58
71960;BMP280;59832;51.146;14.024;2023-05-19T07:03:33;99183.22;;;11.54
71960;BMP280;59832;51.146;14.024;2023-05-19T07:06:00;99182.56;;;11.05
71960;BMP280;59832;51.146;14.024;2023-05-19T07:08:27;99172.13;;;11.22
71960;BMP280;59832;51.146;14.024;2023-05-19T07:10:53;99177.44;;;10.93
71960;BMP280;59832;51.146;14.024;2023-05-19T07:13:21;99174.66;;;11.22
71960;BMP280;59832;51.146;14.024;2023-05-19T07:15:49;99172.22;;;11.77
71960;BMP280;59832;51.146;14.024;2023-05-19T07:18:17;99173.72;;;12.34
71960;BMP280;59832;51.146;14.024;2023-05-19T07:20:44;99171.91;;;12.50
71960;BMP280;59832;51.146;14.024;2023-05-19T07:23:11;99176.75;;;13.02
71960;BMP280;59832;51.146;14.024;2023-05-19T07:25:37;99174.31;;;13.44
71960;BMP280;59832;51.146;14.024;2023-05-19T07:28:04;99171.41;;;13.26
71960;BMP280;59832;51.146;14.024;2023-05-19T07:30:30;99173.06;;;13.19
71960;BMP280;59832;51.146;14.024;2023-05-19T07:32:57;99163.97;;;13.21
71960;BMP280;59832;51.146;14.024;2023-05-19T07:35:24;99165.25;;;13.31
71960;BMP280;59832;51.146;14.024;2023-05-19T07:37:51;99162.72;;;13.50
71960;BMP280;59832;51.146;14.024;2023-05-19T07:40:17;99162.00;;;14.34
71960;BMP280;59832;51.146;14.024;2023-05-19T07:42:44;99164.00;;;13.98
71960;BMP280;59832;51.146;14.024;2023-05-19T07:45:10;99155.31;;;13.64
71960;BMP280;59832;51.146;14.024;2023-05-19T07:47:37;99172.94;;;13.31
71960;BMP280;59832;51.146;14.024;2023-05-19T07:50:03;99173.97;;;13.26
71960;BMP280;59832;51.146;14.024;2023-05-19T07:52:30;99171.44;;;13.46
71960;BMP280;59832;51.146;14.024;2023-05-19T07:54:57;99171.91;;;13.70
71960;BMP280;59832;51.146;14.024;2023-05-19T07:57:24;99167.69;;;13.82
71960;BMP280;59832;51.146;14.024;2023-05-19T07:59:50;99159.19;;;13.74
71960;BMP280;59832;51.146;14.024;2023-05-19T08:02:17;99153.06;;;13.78
71960;BMP280;59832;51.146;14.024;2023-05-19T08:04:43;99164.16;;;14.09
71960;BMP280;59832;51.146;14.024;2023-05-19T08:07:10;99159.53;;;13.72
71960;BMP280;59832;51.146;14.024;2023-05-19T08:09:36;99150.09;;;14.41
71960;BMP280;59832;51.146;14.024;2023-05-19T08:12:03;99154.56;;;14.02
71960;BMP280;59832;51.146;14.024;2023-05-19T08:14:30;99148.31;;;14.22
71960;BMP280;59832;51.146;14.024;2023-05-19T08:16:58;99147.16;;;14.69
71960;BMP280;59832;51.146;14.024;2023-05-19T08:19:24;99149.53;;;14.55
71960;BMP280;59832;51.146;14.024;2023-05-19T08:21:52;99137.41;;;13.84
71960;BMP280;59832;51.146;14.024;2023-05-19T08:24:18;99146.88;;;14.25
71960;BMP280;59832;51.146;14.024;2023-05-19T08:26:45;99139.53;;;14.46
71960;BMP280;59832;51.146;14.024;2023-05-19T08:29:11;99135.44;;;14.42
71960;BMP280;59832;51.146;14.024;2023-05-19T08:31:37;99132.75;;;14.35
71960;BMP280;59832;51.146;14.024;2023-05-19T08:34:04;99152.03;;;14.77
71960;BMP280;59832;51.146;14.024;2023-05-19T08:36:31;99147.50;;;14.94
71960;BMP280;59832;51.146;14.024;2023-05-19T08:38:59;99153.50;;;14.78
71960;BMP280;59832;51.146;14.024;2023-05-19T08:41:25;99159.25;;;14.00
71960;BMP280;59832;51.146;14.024;2023-05-19T08:43:51;99146.53;;;13.62
71960;BMP280;59832;51.146;14.024;2023-05-19T08:46:18;99138.47;;;14.24
71960;BMP280;59832;51.146;14.024;2023-05-19T08:48:53;99130.78;;;14.24
71960;BMP280;59832;51.146;14.024;2023-05-19T08:53:58;99133.63;;;14.19
71960;BMP280;59832;51.146;14.024;2023-05-19T08:56:25;99152.72;;;14.48
71960;BMP280;59832;51.146;14.024;2023-05-19T08:58:52;99145.00;;;14.71
71960;BMP280;59832;51.146;14.024;2023-05-19T09:01:19;99130.50;;;14.56
71960;BMP280;59832;51.146;14.024;2023-05-19T09:03:47;99135.19;;;15.06
71960;BMP280;59832;51.146;14.024;2023-05-19T09:06:15;99129.31;;;15.36
71960;BMP280;59832;51.146;14.024;2023-05-19T09:08:42;99113.56;;;15.70
71960;BMP280;59832;51.146;14.024;2023-05-19T09:11:09;99136.25;;;15.02
71960;BMP280;59832;51.146;14.024;2023-05-19T09:13:35;99124.09;;;14.69
71960;BMP280;59832;51.146;14.024;2023-05-19T09:16:02;99130.53;;;14.86
71960;BMP280;59832;51.146;14.024;2023-05-19T09:18:29;99128.19;;;15.00
71960;BMP280;59832;51.146;14.024;2023-05-19T09:20:57;99136.75;;;14.32
71960;BMP280;59832;51.146;14.024;2023-05-19T09:23:36;99123.00;;;14.96
71960;BMP280;59832;51.146;14.024;2023-05-19T09:26:03;99126.38;;;14.48
71960;BMP280;59832;51.146;14.024;2023-05-19T09:28:34;99136.31;;;15.39
71960;BMP280;59832;51.146;14.024;2023-05-19T09:31:08;99122.16;;;15.18
71960;BMP280;59832;51.146;14.024;2023-05-19T09:33:37;99144.41;;;14.81
71960;BMP280;59832;51.146;14.024;2023-05-19T09:36:05;99141.69;;;14.97
71960;BMP280;59832;51.146;14.024;2023-05-19T09:38:33;99135.25;;;14.80
71960;BMP280;59832;51.146;14.024;2023-05-19T09:41:01;99131.75;;;14.92
71960;BMP280;59832;51.146;14.024;2023-05-19T09:43:28;99137.59;;;15.22
71960;BMP280;59832;51.146;14.024;2023-05-19T09:48:25;99120.31;;;14.33
71960;BMP280;59832;51.146;14.024;2023-05-19T09:50:52;99125.94;;;14.19
71960;BMP280;59832;51.146;14.024;2023-05-19T09:53:20;99126.22;;;14.37
71960;BMP280;59832;51.146;14.024;2023-05-19T09:55:46;99122.78;;;13.84
71960;BMP280;59832;51.146;14.024;2023-05-19T09:58:19;99112.38;;;14.19
71960;BMP280;59832;51.146;14.024;2023-05-19T10:00:46;99116.97;;;14.55
71960;BMP280;59832;51.146;14.024;2023-05-19T10:03:14;99111.81;;;15.11
71960;BMP280;59832;51.146;14.024;2023-05-19T10:05:42;99112.53;;;15.42
71960;BMP280;59832;51.146;14.024;2023-05-19T10:08:12;99112.63;;;15.15
71960;BMP280;59832;51.146;14.024;2023-05-19T10:10:39;99118.06;;;15.44
71960;BMP280;59832;51.146;14.024;2023-05-19T10:13:07;99112.94;;;15.10
71960;BMP280;59832;51.146;14.024;2023-05-19T10:15:34;99106.41;;;14.60
71960;BMP280;59832;51.146;14.024;2023-05-19T10:18:19;99124.22;;;14.76
71960;BMP280;59832;51.146;14.024;2023-05-19T10:20:47;99116.56;;;15.09
71960;BMP280;59832;51.146;14.024;2023-05-19T10:23:15;99120.84;;;14.98
71960;BMP280;59832;51.146;14.024;2023-05-19T10:25:42;99111.00;;;15.04
71960;BMP280;59832;51.146;14.024;2023-05-19T10:28:12;99118.53;;;14.37
71960;BMP280;59832;51.146;14.024;2023-05-19T10:30:41;99105.28;;;14.32
71960;BMP280;59832;51.146;14.024;2023-05-19T10:33:09;99114.91;;;14.64
71960;BMP280;59832;51.146;14.024;2023-05-19T10:38:11;99106.88;;;15.25
71960;BMP280;59832;51.146;14.024;2023-05-19T10:40:50;99110.13;;;15.22
71960;BMP280;59832;51.146;14.024;2023-05-19T10:46:04;99091.84;;;14.64
71960;BMP280;59832;51.146;14.024;2023-05-19T10:48:32;99097.75;;;14.98
71960;BMP280;59832;51.146;14.024;2023-05-19T10:50:59;99101.75;;;14.96
71960;BMP280;59832;51.146;14.024;2023-05-19T10:53:31;99100.47;;;14.53
71960;BMP280;59832;51.146;14.024;2023-05-19T10:55:59;99096.88;;;14.57
71960;BMP280;59832;51.146;14.024;2023-05-19T11:01:34;99109.75;;;14.91
71960;BMP280;59832;51.146;14.024;2023-05-19T11:04:09;99090.41;;;15.26
71960;BMP280;59832;51.146;14.024;2023-05-19T11:06:37;99099.38;;;15.47
71960;BMP280;59832;51.146;14.024;2023-05-19T11:09:14;99094.88;;;15.03
71960;BMP280;59832;51.146;14.024;2023-05-19T11:11:53;99110.03;;;14.82
71960;BMP280;59832;51.146;14.024;2023-05-19T11:14:26;99106.41;;;14.60
71960;BMP280;59832;51.146;14.024;2023-05-19T11:16:56;99101.69;;;15.22
71960;BMP280;59832;51.146;14.024;2023-05-19T11:19:27;99105.06;;;15.29
71960;BMP280;59832;51.146;14.024;2023-05-19T11:21:55;99090.41;;;14.93
71960;BMP280;59832;51.146;14.024;2023-05-19T11:24:42;99114.00;;;14.79
71960;BMP280;59832;51.146;14.024;2023-05-19T11:27:30;99098.09;;;14.93
71960;BMP280;59832;51.146;14.024;2023-05-19T11:29:59;99093.97;;;15.18
71960;BMP280;59832;51.146;14.024;2023-05-19T11:32:28;99094.06;;;14.96
71960;BMP280;59832;51.146;14.024;2023-05-19T11:34:56;99099.19;;;14.66
71960;BMP280;59832;51.146;14.024;2023-05-19T11:37:23;99091.44;;;14.62
71960;BMP280;59832;51.146;14.024;2023-05-19T11:39:50;99094.38;;;14.91
71960;BMP280;59832;51.146;14.024;2023-05-19T11:42:17;99101.03;;;14.43
71960;BMP280;59832;51.146;14.024;2023-05-19T11:44:44;99092.22;;;14.66
71960;BMP280;59832;51.146;14.024;2023-05-19T11:47:12;99096.88;;;14.87
71960;BMP280;59832;51.146;14.024;2023-05-19T11:49:42;99086.22;;;14.29
71960;BMP280;59832;51.146;14.024;2023-05-19T11:52:09;99099.28;;;14.73
71960;BMP280;59832;51.146;14.024;2023-05-19T11:54:36;99114.53;;;14.92
71960;BMP280;59832;51.146;14.024;2023-05-19T11:57:03;99112.06;;;15.03
71960;BMP280;59832;51.146;14.024;2023-05-19T11:59:33;99102.94;;;15.02
71960;BMP280;59832;51.146;14.024;2023-05-19T12:02:15;99115.53;;;14.84
71960;BMP280;59832;51.146;14.024;2023-05-19T12:04:41;99108.81;;;15.36
71960;BMP280;59832;51.146;14.024;2023-05-19T12:07:10;99096.81;;;15.13
71960;BMP280;59832;51.146;14.024;2023-05-19T12:09:38;99100.44;;;15.46
71960;BMP280;59832;51.146;14.024;2023-05-19T12:12:06;99100.84;;;15.48
71960;BMP280;59832;51.146;14.024;2023-05-19T12:14:32;99104.16;;;14.85
71960;BMP280;59832;51.146;14.024;2023-05-19T12:17:09;99096.69;;;15.03
71960;BMP280;59832;51.146;14.024;2023-05-19T12:19:36;99103.13;;;15.56
71960;BMP280;59832;51.146;14.024;2023-05-19T12:22:05;99094.03;;;15.62
71960;BMP280;59832;51.146;14.024;2023-05-19T12:24:36;99116.91;;;15.78
71960;BMP280;59832;51.146;14.024;2023-05-19T12:27:09;99101.25;;;15.50
71960;BMP280;59832;51.146;14.024;2023-05-19T12:29:38;99092.59;;;16.16
71960;BMP280;59832;51.146;14.024;2023-05-19T12:32:08;99106.03;;;15.95
71960;BMP280;59832;51.146;14.024;2023-05-19T12:34:36;99102.66;;;16.35
71960;BMP280;59832;51.146;14.024;2023-05-19T12:37:04;99089.00;;;16.24
71960;BMP280;59832;51.146;14.024;2023-05-19T12:39:31;99093.00;;;16.18
71960;BMP280;59832;51.146;14.024;2023-05-19T12:42:11;99080.84;;;15.64
71960;BMP280;59832;51.146;14.024;2023-05-19T12:44:42;99083.56;;;15.41
71960;BMP280;59832;51.146;14.024;2023-05-19T12:47:12;99096.28;;;15.67
71960;BMP280;59832;51.146;14.024;2023-05-19T12:49:56;99100.75;;;16.25
71960;BMP280;59832;51.146;14.024;2023-05-19T12:52:27;99091.47;;;15.62
71960;BMP280;59832;51.146;14.024;2023-05-19T12:54:58;99080.34;;;15.92
71960;BMP280;59832;51.146;14.024;2023-05-19T12:57:26;99094.22;;;15.43
71960;BMP280;59832;51.146;14.024;2023-05-19T13:00:06;99089.47;;;15.08
71960;BMP280;59832;51.146;14.024;2023-05-19T13:02:34;99094.88;;;14.73
71960;BMP280;59832;51.146;14.024;2023-05-19T13:05:02;99086.22;;;14.55
71960;BMP280;59832;51.146;14.024;2023-05-19T13:07:29;99078.16;;;14.83
71960;BMP280;59832;51.146;14.024;2023-05-19T13:09:56;99086.88;;;14.78
71960;BMP280;59832;51.146;14.024;2023-05-19T13:12:22;99074.28;;;14.66
71960;BMP280;59832;51.146;14.024;2023-05-19T13:14:49;99070.44;;;15.13
71960;BMP280;59832;51.146;14.024;2023-05-19T13:17:18;99068.97;;;15.49
71960;BMP280;59832;51.146;14.024;2023-05-19T13:19:45;99068.34;;;15.59
71960;BMP280;59832;51.146;14.024;2023-05-19T13:22:12;99067.78;;;15.39
71960;BMP280;59832;51.146;14.024;2023-05-19T13:24:39;99082.81;;;15.04
71960;BMP280;59832;51.146;14.024;2023-05-19T13:27:06;99071.47;;;15.05
71960;BMP280;59832;51.146;14.024;2023-05-19T13:29:32;99073.38;;;15.48
71960;BMP280;59832;51.146;14.024;2023-05-19T13:31:59;99085.06;;;14.79
71960;BMP280;59832;51.146;14.024;2023-05-19T13:34:26;99079.72;;;14.61
71960;BMP280;59832;51.146;14.024;2023-05-19T13:36:53;99068.38;;;14.36
71960;BMP280;59832;51.146;14.024;2023-05-19T13:39:19;99065.09;;;14.36
71960;BMP280;59832;51.146;14.024;2023-05-19T13:41:46;99059.06;;;14.51
71960;BMP280;59832;51.146;14.024;2023-05-19T13:44:12;99062.63;;;14.99
71960;BMP280;59832;51.146;14.024;2023-05-19T13:46:39;99060.84;;;14.73
71960;BMP280;59832;51.146;14.024;2023-05-19T13:49:12;99048.44;;;14.78
71960;BMP280;59832;51.146;14.024;2023-05-19T13:51:41;99050.66;;;15.10
71960;BMP280;59832;51.146;14.024;2023-05-19T13:54:09;99047.41;;;15.57
71960;BMP280;59832;51.146;14.024;2023-05-19T13:56:35;99043.91;;;15.32
71960;BMP280;59832;51.146;14.024;2023-05-19T13:59:02;99056.22;;;14.86
71960;BMP280;59832;51.146;14.024;2023-05-19T14:01:29;99046.22;;;14.77
71960;BMP280;59832;51.146;14.024;2023-05-19T14:03:55;99044.13;;;14.86
71960;BMP280;59832;51.146;14.024;2023-05-19T14:06:22;99055.88;;;15.17
71960;BMP280;59832;51.146;14.024;2023-05-19T14:08:49;99054.66;;;15.44
71960;BMP280;59832;51.146;14.024;2023-05-19T14:11:17;99051.59;;;15.32
71960;BMP280;59832;51.146;14.024;2023-05-19T14:13:48;99050.84;;;15.31
71960;BMP280;59832;51.146;14.024;2023-05-19T14:16:18;99050.88;;;15.35
71960;BMP280;59832;51.146;14.024;2023-05-19T14:18:47;99045.25;;;15.18
71960;BMP280;59832;51.146;14.024;2023-05-19T14:21:14;99042.44;;;14.97
71960;BMP280;59832;51.146;14.024;2023-05-19T14:23:40;99050.69;;;14.54